createdAt,value
2022-10-23T00:00:33.797Z,11.5
2022-10-23T00:01:35.642Z,11.5
2022-10-23T00:02:37.670Z,11.5
2022-10-23T00:03:39.625Z,11.5
2022-10-23T00:04:41.664Z,11.5
2022-10-23T00:05:43.704Z,11.5
2022-10-23T00:06:45.683Z,11.5
2022-10-23T00:07:47.644Z,11.4
2022-10-23T00:08:50.223Z,11.4
2022-10-23T00:09:51.803Z,11.4
2022-10-23T00:10:53.644Z,11.4
2022-10-23T00:11:55.803Z,11.4
2022-10-23T00:12:57.783Z,11.4
2022-10-23T00:13:59.602Z,11.4
2022-10-23T00:15:01.706Z,11.4
2022-10-23T00:16:03.727Z,11.3
2022-10-23T00:17:05.663Z,11.3
2022-10-23T00:18:07.663Z,11.3
2022-10-23T00:19:10.143Z,11.3
2022-10-23T00:20:11.663Z,11.3
2022-10-23T00:21:13.623Z,11.3
2022-10-23T00:22:15.662Z,11.3
2022-10-23T00:23:17.785Z,11.2
2022-10-23T00:24:19.890Z,11.2
2022-10-23T00:25:22.182Z,11.2
2022-10-23T00:26:23.744Z,11.2
2022-10-23T00:27:26.323Z,11.2
2022-10-23T00:28:27.644Z,11.2
2022-10-23T00:29:29.622Z,11.1
2022-10-23T00:30:31.676Z,11.1
2022-10-23T00:31:33.666Z,11.1
2022-10-23T00:32:35.706Z,11.1
2022-10-23T00:33:37.623Z,11.1
2022-10-23T00:34:39.622Z,11
2022-10-23T00:35:42.063Z,11
2022-10-23T00:36:43.664Z,11
2022-10-23T00:37:45.703Z,11
2022-10-23T00:38:48.123Z,11
2022-10-23T00:39:49.709Z,11
2022-10-23T00:40:51.717Z,10.9
2022-10-23T00:41:53.663Z,10.9
2022-10-23T00:42:55.703Z,10.9
2022-10-23T00:43:57.783Z,10.9
2022-10-23T00:44:59.627Z,10.8
2022-10-23T00:46:01.708Z,10.9
2022-10-23T00:47:03.643Z,10.8
2022-10-23T00:48:05.665Z,10.8
2022-10-23T00:49:07.710Z,10.8
2022-10-23T00:50:09.646Z,10.8
2022-10-23T00:51:11.623Z,10.8
2022-10-23T00:52:13.663Z,10.8
2022-10-23T00:53:16.905Z,10.8
2022-10-23T00:54:23.773Z,10.8
2022-10-23T00:55:20.643Z,10.7
2022-10-23T00:56:22.562Z,10.7
2022-10-23T00:57:24.822Z,10.7
2022-10-23T00:58:26.923Z,10.7
2022-10-23T00:59:28.644Z,10.6
2022-10-23T01:00:30.746Z,10.6
2022-10-23T01:01:32.747Z,10.6
2022-10-23T01:02:34.855Z,10.6
2022-10-23T01:03:36.683Z,10.6
2022-10-23T01:04:38.704Z,10.6
2022-10-23T01:05:40.710Z,10.6
2022-10-23T01:06:42.652Z,10.6
2022-10-23T01:07:45.257Z,10.6
2022-10-23T01:08:46.783Z,10.6
2022-10-23T01:09:48.712Z,10.5
2022-10-23T01:10:50.665Z,10.5
2022-10-23T01:11:53.024Z,10.5
2022-10-23T01:12:54.907Z,10.5
2022-10-23T01:13:56.667Z,10.5
2022-10-23T01:14:58.966Z,10.5
2022-10-23T01:16:00.983Z,10.5
2022-10-23T01:17:02.754Z,10.4
2022-10-23T01:18:04.983Z,10.4
2022-10-23T01:19:07.265Z,10.4
2022-10-23T01:20:08.672Z,10.4
2022-10-23T01:21:10.746Z,10.4
2022-10-23T01:22:13.036Z,10.4
2022-10-23T01:23:14.683Z,10.4
2022-10-23T01:24:16.703Z,10.4
2022-10-23T01:25:18.703Z,10.3
2022-10-23T01:26:20.964Z,10.3
2022-10-23T01:27:22.783Z,10.3
2022-10-23T01:28:25.544Z,10.3
2022-10-23T01:29:27.823Z,10.3
2022-10-23T01:30:29.936Z,10.3
2022-10-23T01:31:31.724Z,10.3
2022-10-23T01:32:33.670Z,10.3
2022-10-23T01:33:35.643Z,10.3
2022-10-23T01:34:37.644Z,10.3
2022-10-23T01:35:39.624Z,10.3
2022-10-23T01:36:41.723Z,10.4
2022-10-23T01:37:43.733Z,10.4
2022-10-23T01:38:45.946Z,10.4
2022-10-23T01:39:47.802Z,10.4
2022-10-23T01:40:49.963Z,10.5
2022-10-23T01:41:52.042Z,10.5
2022-10-23T01:42:53.646Z,10.5
2022-10-23T01:43:55.642Z,10.5
2022-10-23T01:44:57.943Z,10.5
2022-10-23T01:45:59.842Z,10.5
2022-10-23T01:47:01.722Z,10.5
2022-10-23T01:48:03.627Z,10.4
2022-10-23T01:49:05.691Z,10.5
2022-10-23T01:50:07.662Z,10.5
2022-10-23T01:51:09.902Z,10.5
2022-10-23T01:52:11.662Z,10.5
2022-10-23T01:53:13.635Z,10.5
2022-10-23T01:54:15.922Z,10.5
2022-10-23T01:55:17.842Z,10.5
2022-10-23T01:56:19.763Z,10.5
2022-10-23T01:57:21.823Z,10.5
2022-10-23T01:58:23.665Z,10.6
2022-10-23T01:59:25.743Z,10.6
2022-10-23T02:00:27.762Z,10.7
2022-10-23T02:04:27.700Z,10.7
2022-10-23T02:05:29.654Z,10.7
2022-10-23T02:06:31.675Z,10.7
2022-10-23T02:07:33.735Z,10.7
2022-10-23T02:08:35.955Z,10.7
2022-10-23T02:09:37.739Z,10.7
2022-10-23T02:10:39.715Z,10.7
2022-10-23T02:11:41.735Z,10.8
2022-10-23T02:12:43.676Z,10.8
2022-10-23T02:13:45.754Z,10.8
2022-10-23T02:14:47.784Z,10.8
2022-10-23T02:15:49.694Z,10.7
2022-10-23T02:16:51.715Z,10.7
2022-10-23T02:17:53.774Z,10.7
2022-10-23T02:18:55.796Z,10.6
2022-10-23T02:19:58.139Z,10.7
2022-10-23T02:20:59.816Z,10.6
2022-10-23T02:22:01.874Z,10.7
2022-10-23T02:23:03.732Z,10.7
2022-10-23T02:24:05.755Z,10.8
2022-10-23T02:25:07.695Z,10.8
2022-10-23T02:26:09.656Z,10.8
2022-10-23T02:27:11.834Z,10.8
2022-10-23T02:28:13.776Z,10.8
2022-10-23T02:29:15.716Z,10.8
2022-10-23T02:30:17.755Z,10.8
2022-10-23T02:31:19.834Z,10.8
2022-10-23T02:32:22.094Z,10.8
2022-10-23T02:33:23.695Z,10.8
2022-10-23T02:34:25.716Z,10.9
2022-10-23T02:35:27.739Z,10.8
2022-10-23T02:36:29.664Z,10.9
2022-10-23T02:37:31.797Z,10.9
2022-10-23T02:38:33.714Z,10.9
2022-10-23T02:39:35.724Z,10.9
2022-10-23T02:40:37.756Z,10.9
2022-10-23T02:41:39.916Z,11
2022-10-23T02:42:41.695Z,11
2022-10-23T02:43:43.715Z,11
2022-10-23T02:44:45.714Z,11
2022-10-23T02:45:47.725Z,11.1
2022-10-23T02:46:50.114Z,11.1
2022-10-23T02:47:51.700Z,11.1
2022-10-23T02:48:53.634Z,11.1
2022-10-23T02:49:54.714Z,11.1
2022-10-23T02:50:56.739Z,11.1
2022-10-23T02:51:58.795Z,11.1
2022-10-23T02:53:00.716Z,11.1
2022-10-23T02:54:02.717Z,11.2
2022-10-23T02:55:04.777Z,11.2
2022-10-23T02:56:06.737Z,11.2
2022-10-23T02:57:08.715Z,11.3
2022-10-23T02:58:10.734Z,11.3
2022-10-23T02:59:12.814Z,11.3
2022-10-23T03:00:15.229Z,11.4
2022-10-23T03:01:16.791Z,11.3
2022-10-23T03:02:18.837Z,11.3
2022-10-23T03:03:20.675Z,11.3
2022-10-23T03:04:22.675Z,11.4
2022-10-23T03:05:24.715Z,11.5
2022-10-23T03:06:26.722Z,11.5
2022-10-23T03:07:28.695Z,11.6
2022-10-23T03:08:30.743Z,11.6
2022-10-23T03:09:32.774Z,11.6
2022-10-23T03:10:34.715Z,11.6
2022-10-23T03:11:36.735Z,11.7
2022-10-23T03:12:38.697Z,11.7
2022-10-23T03:13:40.715Z,11.7
2022-10-23T03:14:42.715Z,11.7
2022-10-23T03:15:44.695Z,11.8
2022-10-23T03:16:46.754Z,11.8
2022-10-23T03:17:48.715Z,11.9
2022-10-23T03:18:50.735Z,11.9
2022-10-23T03:19:52.822Z,11.9
2022-10-23T03:20:54.715Z,11.9
2022-10-23T03:21:56.899Z,12
2022-10-23T03:22:59.055Z,12
2022-10-23T03:24:01.035Z,12
2022-10-23T03:25:02.980Z,12
2022-10-23T03:26:04.696Z,12
2022-10-23T03:27:06.695Z,12
2022-10-23T03:28:08.715Z,12
2022-10-23T03:29:11.035Z,12.1
2022-10-23T03:30:12.977Z,12.1
2022-10-23T03:31:14.755Z,12.1
2022-10-23T03:32:16.717Z,12.1
2022-10-23T03:33:19.056Z,12.1
2022-10-23T03:34:20.814Z,12.1
2022-10-23T03:35:22.715Z,12.1
2022-10-23T03:36:24.934Z,12.2
2022-10-23T03:37:26.722Z,12.2
2022-10-23T03:38:28.734Z,12.2
2022-10-23T03:39:30.775Z,12.2
2022-10-23T03:40:32.734Z,12.2
2022-10-23T03:41:34.795Z,12.1
2022-10-23T03:42:36.815Z,12.1
2022-10-23T03:43:38.874Z,12.1
2022-10-23T03:44:41.739Z,12.1
2022-10-23T03:45:43.754Z,12
2022-10-23T03:46:46.094Z,12
2022-10-23T03:47:47.891Z,12
2022-10-23T03:48:49.955Z,12
2022-10-23T03:49:51.915Z,12.1
2022-10-23T03:50:53.749Z,12.1
2022-10-23T03:51:55.875Z,12
2022-10-23T03:52:58.079Z,12
2022-10-23T03:53:59.735Z,12
2022-10-23T03:55:01.776Z,12
2022-10-23T03:56:03.726Z,12
2022-10-23T03:57:07.015Z,12
2022-10-23T03:58:08.778Z,11.9
2022-10-23T03:59:10.895Z,11.9
2022-10-23T04:00:12.795Z,11.9
2022-10-23T04:01:14.848Z,11.9
2022-10-23T04:02:16.820Z,11.9
2022-10-23T04:03:19.194Z,11.8
2022-10-23T04:04:20.735Z,11.8
2022-10-23T04:05:22.724Z,11.7
2022-10-23T04:06:24.756Z,11.7
2022-10-23T04:07:26.835Z,11.7
2022-10-23T04:08:28.761Z,11.7
2022-10-23T04:09:31.094Z,11.6
2022-10-23T04:10:32.754Z,11.6
2022-10-23T04:11:34.755Z,11.6
2022-10-23T04:12:36.795Z,11.5
2022-10-23T04:13:38.915Z,11.5
2022-10-23T04:14:40.756Z,11.5
2022-10-23T04:15:43.028Z,11.5
2022-10-23T04:16:44.755Z,11.5
2022-10-23T04:17:46.795Z,11.6
2022-10-23T04:18:48.776Z,11.6
2022-10-23T04:19:50.776Z,11.6
2022-10-23T04:20:52.795Z,11.5
2022-10-23T04:21:54.715Z,11.5
2022-10-23T04:22:57.035Z,11.5
2022-10-23T04:23:59.820Z,11.4
2022-10-23T04:25:01.795Z,11.3
2022-10-23T04:26:03.835Z,11.2
2022-10-23T04:27:05.877Z,11.3
2022-10-23T04:28:07.774Z,11.2
2022-10-23T04:29:09.784Z,11.3
2022-10-23T04:30:11.794Z,11.3
2022-10-23T04:31:13.808Z,11.3
2022-10-23T04:32:15.958Z,11.2
2022-10-23T04:33:17.916Z,11.3
2022-10-23T04:34:19.795Z,11.4
2022-10-23T04:35:21.994Z,11.3
2022-10-23T04:36:23.943Z,11.3
2022-10-23T04:37:25.954Z,11.3
2022-10-23T04:38:27.775Z,11.3
2022-10-23T04:39:29.759Z,11.3
2022-10-23T04:40:31.795Z,11.3
2022-10-23T04:41:34.176Z,11.3
2022-10-23T04:42:36.178Z,11.3
2022-10-23T04:43:38.122Z,11.3
2022-10-23T04:44:39.754Z,11.4
2022-10-23T04:45:41.814Z,11.3
2022-10-23T04:46:44.075Z,11.3
2022-10-23T04:47:46.416Z,11.3
2022-10-23T04:48:47.774Z,11.4
2022-10-23T04:49:49.815Z,11.3
2022-10-23T04:50:51.879Z,11.3
2022-10-23T04:51:53.834Z,11.3
2022-10-23T04:52:55.834Z,11.3
2022-10-23T04:53:57.996Z,11.3
2022-10-23T04:54:59.761Z,11.3
2022-10-23T04:56:02.785Z,11.3
2022-10-23T04:57:06.075Z,11.3
2022-10-23T04:58:07.855Z,11.3
2022-10-23T04:59:09.827Z,11.3
2022-10-23T05:00:11.775Z,11.3
2022-10-23T05:01:13.898Z,11.3
2022-10-23T05:02:16.133Z,11.3
2022-10-23T05:03:17.836Z,11.2
2022-10-23T05:04:20.057Z,11.3
2022-10-23T05:05:22.208Z,11.2
2022-10-23T05:06:23.794Z,11.2
2022-10-23T05:07:25.936Z,11.2
2022-10-23T05:08:27.875Z,11.2
2022-10-23T05:09:30.087Z,11.1
2022-10-23T05:10:32.042Z,11.2
2022-10-23T05:11:33.778Z,11.2
2022-10-23T05:12:35.814Z,11.2
2022-10-23T05:13:37.936Z,11.2
2022-10-23T05:14:39.948Z,11.3
2022-10-23T05:16:44.817Z,11.3
2022-10-23T05:17:47.474Z,11.3
2022-10-23T05:18:48.834Z,11.4
2022-10-23T05:19:51.114Z,11.4
2022-10-23T05:20:53.362Z,11.3
2022-10-23T05:21:54.815Z,11.3
2022-10-23T05:22:56.844Z,11.3
2022-10-23T05:25:00.968Z,11.4
2022-10-23T05:26:03.119Z,11.3
2022-10-23T05:27:04.935Z,11.3
2022-10-23T05:28:06.962Z,11.2
2022-10-23T05:29:08.796Z,11.2
2022-10-23T05:30:10.777Z,11.2
2022-10-23T05:31:12.955Z,11.2
2022-10-23T05:32:14.938Z,11.2
2022-10-23T05:33:16.812Z,11.2
2022-10-23T05:34:18.822Z,11.2
2022-10-23T05:35:21.054Z,11.2
2022-10-23T05:36:22.890Z,11.2
2022-10-23T05:37:24.775Z,11.2
2022-10-23T05:38:26.816Z,11.2
2022-10-23T05:39:28.794Z,11.1
2022-10-23T05:40:30.838Z,11.1
2022-10-23T05:41:32.905Z,11.2
2022-10-23T05:42:36.111Z,11.2
2022-10-23T05:43:36.836Z,11.1
2022-10-23T05:44:39.497Z,11.1
2022-10-23T05:45:40.877Z,11.1
2022-10-23T05:46:43.236Z,11.1
2022-10-23T05:47:44.855Z,11.1
2022-10-23T05:48:46.859Z,11.1
2022-10-23T05:49:48.855Z,11.1
2022-10-23T05:50:50.934Z,11.1
2022-10-23T05:51:53.254Z,11.1
2022-10-23T05:52:54.955Z,11.1
2022-10-23T05:53:56.758Z,11.1
2022-10-23T05:54:58.827Z,11
2022-10-23T05:56:00.835Z,11
2022-10-23T05:57:03.191Z,11
2022-10-23T05:58:04.820Z,11
2022-10-23T05:59:06.795Z,11
2022-10-23T06:00:09.263Z,11
2022-10-23T06:01:11.136Z,11
2022-10-23T06:02:12.892Z,11
2022-10-23T06:03:15.235Z,11
2022-10-23T06:04:16.916Z,11
2022-10-23T06:05:18.974Z,11.1
2022-10-23T06:06:20.815Z,11.1
2022-10-23T06:07:22.817Z,11.1
2022-10-23T06:08:25.297Z,11.1
2022-10-23T06:09:26.989Z,11.1
2022-10-23T06:10:28.922Z,11.1
2022-10-23T06:11:30.855Z,11.1
2022-10-23T06:12:32.843Z,11.1
2022-10-23T06:13:34.939Z,11
2022-10-23T06:14:37.236Z,11
2022-10-23T06:15:39.041Z,11
2022-10-23T06:16:40.818Z,11
2022-10-23T06:17:43.284Z,11
2022-10-23T06:18:45.320Z,11
2022-10-23T06:19:46.834Z,11
2022-10-23T06:20:48.808Z,11
2022-10-23T06:21:50.885Z,11
2022-10-23T06:22:52.916Z,11
2022-10-23T06:23:54.895Z,11.1
2022-10-23T06:24:56.878Z,11.1
2022-10-23T06:25:59.395Z,11.1
2022-10-23T06:27:00.915Z,11.1
2022-10-23T06:28:03.372Z,11.2
2022-10-23T06:29:05.634Z,11.2
2022-10-23T06:30:06.998Z,11.2
2022-10-23T06:31:08.879Z,11.2
2022-10-23T06:32:10.839Z,11.3
2022-10-23T06:33:12.935Z,11.3
2022-10-23T06:34:15.034Z,11.2
2022-10-23T06:35:17.174Z,11.3
2022-10-23T06:36:18.859Z,11.3
2022-10-23T06:37:20.854Z,11.3
2022-10-23T06:38:23.115Z,11.4
2022-10-23T06:39:26.115Z,11.4
2022-10-23T06:40:26.915Z,11.5
2022-10-23T06:41:28.955Z,11.5
2022-10-23T06:42:30.898Z,11.5
2022-10-23T06:43:32.920Z,11.5
2022-10-23T06:44:35.008Z,11.5
2022-10-23T06:45:36.862Z,11.6
2022-10-23T06:46:38.871Z,11.5
2022-10-23T06:47:41.030Z,11.5
2022-10-23T06:48:43.006Z,11.4
2022-10-23T06:49:44.854Z,11.4
2022-10-23T06:50:46.915Z,11.4
2022-10-23T06:51:48.899Z,11.5
2022-10-23T06:52:50.839Z,11.5
2022-10-23T06:53:52.851Z,11.5
2022-10-23T06:54:54.875Z,11.6
2022-10-23T06:55:56.836Z,11.6
2022-10-23T06:56:58.915Z,11.6
2022-10-23T06:58:01.015Z,11.6
2022-10-23T06:59:02.919Z,11.7
2022-10-23T07:00:04.915Z,11.7
2022-10-23T07:01:06.976Z,11.6
2022-10-23T07:02:08.890Z,11.5
2022-10-23T07:03:11.474Z,11.6
2022-10-23T07:04:12.839Z,11.6
2022-10-23T07:05:14.874Z,11.6
2022-10-23T07:06:16.856Z,11.6
2022-10-23T07:07:18.837Z,11.7
2022-10-23T07:08:20.942Z,11.8
2022-10-23T07:09:22.975Z,11.9
2022-10-23T07:10:24.835Z,12
2022-10-23T07:11:26.824Z,12.1
2022-10-23T07:12:28.855Z,12.2
2022-10-23T07:13:31.110Z,12.3
2022-10-23T07:14:32.947Z,12.5
2022-10-23T07:15:34.915Z,12.5
2022-10-23T07:16:37.695Z,12.6
2022-10-23T07:17:38.915Z,12.6
2022-10-23T07:18:40.878Z,12.8
2022-10-23T07:19:42.835Z,12.9
2022-10-23T07:20:44.875Z,13
2022-10-23T07:21:46.899Z,13.1
2022-10-23T07:23:03.896Z,13.2
2022-10-23T07:24:05.895Z,13.4
2022-10-23T07:25:07.812Z,13.5
2022-10-23T07:26:09.834Z,13.5
2022-10-23T07:27:11.923Z,13.5
2022-10-23T07:28:13.855Z,13.5
2022-10-23T07:29:15.836Z,13.4
2022-10-23T07:30:17.886Z,13.4
2022-10-23T07:31:22.976Z,13.3
2022-10-23T07:32:22.471Z,13.2
2022-10-23T07:33:23.858Z,13.1
2022-10-23T07:34:25.895Z,13
2022-10-23T07:35:27.896Z,13
2022-10-23T07:36:29.875Z,13
2022-10-23T07:37:31.855Z,13
2022-10-23T07:38:33.888Z,13
2022-10-23T07:39:35.898Z,13
2022-10-23T07:40:37.915Z,13.1
2022-10-23T07:41:40.054Z,13.1
2022-10-23T07:42:41.829Z,13.1
2022-10-23T07:43:42.856Z,13.3
2022-10-23T07:44:44.877Z,13.3
2022-10-23T07:45:46.909Z,13.3
2022-10-23T07:46:48.915Z,13.3
2022-10-23T07:47:50.856Z,13.4
2022-10-23T07:48:52.995Z,13.4
2022-10-23T07:49:55.157Z,13.5
2022-10-23T07:50:57.036Z,13.6
2022-10-23T07:51:59.011Z,13.6
2022-10-23T07:53:00.895Z,13.8
2022-10-23T07:54:02.886Z,13.8
2022-10-23T07:55:04.874Z,13.9
2022-10-23T07:56:07.901Z,14
2022-10-23T07:57:10.047Z,14
2022-10-23T07:58:11.835Z,14
2022-10-23T07:59:13.888Z,14.1
2022-10-23T08:00:15.944Z,14.2
2022-10-23T08:01:18.175Z,14.4
2022-10-23T08:02:20.387Z,14.5
2022-10-23T08:03:22.515Z,14.6
2022-10-23T08:04:23.875Z,14.6
2022-10-23T08:05:25.884Z,14.6
2022-10-23T08:06:27.920Z,14.7
2022-10-23T08:07:29.980Z,14.8
2022-10-23T08:08:31.876Z,14.8
2022-10-23T08:09:33.839Z,14.8
2022-10-23T08:10:35.895Z,14.8
2022-10-23T08:11:37.880Z,14.8
2022-10-23T08:12:39.970Z,14.9
2022-10-23T08:13:41.819Z,14.8
2022-10-23T08:14:43.914Z,14.8
2022-10-23T08:15:45.932Z,14.9
2022-10-23T08:16:47.903Z,14.9
2022-10-23T08:17:49.895Z,14.8
2022-10-23T08:18:51.958Z,14.9
2022-10-23T08:19:53.900Z,15
2022-10-23T08:20:55.925Z,15.1
2022-10-23T08:21:57.843Z,15.1
2022-10-23T08:22:59.934Z,15.3
2022-10-23T08:24:02.315Z,15.4
2022-10-23T08:25:04.895Z,15.4
2022-10-23T08:26:06.937Z,15.5
2022-10-23T08:27:08.985Z,15.6
2022-10-23T08:28:10.895Z,15.7
2022-10-23T08:29:12.897Z,15.8
2022-10-23T08:30:14.914Z,15.9
2022-10-23T08:31:16.915Z,15.9
2022-10-23T08:32:18.941Z,16
2022-10-23T08:33:20.820Z,16.2
2022-10-23T08:34:22.858Z,16.3
2022-10-23T08:35:23.844Z,16.3
2022-10-23T08:36:25.896Z,16.3
2022-10-23T08:37:27.875Z,16.3
2022-10-23T08:38:29.875Z,16.4
2022-10-23T08:39:31.907Z,16.4
2022-10-23T08:40:33.955Z,16.5
2022-10-23T08:41:35.891Z,16.7
2022-10-23T08:42:37.939Z,16.9
2022-10-23T08:43:39.975Z,17.1
2022-10-23T08:44:41.875Z,17.3
2022-10-23T08:45:43.921Z,17.4
2022-10-23T08:46:45.917Z,17.5
2022-10-23T08:47:47.918Z,17.6
2022-10-23T08:48:49.935Z,17.7
2022-10-23T08:49:51.895Z,17.7
2022-10-23T08:50:54.000Z,17.7
2022-10-23T08:51:56.028Z,17.8
2022-10-23T08:52:57.993Z,17.8
2022-10-23T08:53:59.936Z,17.9
2022-10-23T08:55:02.193Z,17.8
2022-10-23T08:56:04.125Z,17.6
2022-10-23T08:57:06.074Z,17.6
2022-10-23T08:58:07.993Z,17.5
2022-10-23T08:59:09.904Z,17.4
2022-10-23T09:00:11.866Z,17.2
2022-10-23T09:01:19.041Z,17.2
2022-10-23T09:02:21.005Z,17.3
2022-10-23T09:03:22.929Z,17.3
2022-10-23T09:04:24.942Z,17.2
2022-10-23T09:05:27.242Z,17.2
2022-10-23T09:06:29.076Z,17.2
2022-10-23T09:07:30.917Z,17.2
2022-10-23T09:08:32.995Z,17.3
2022-10-23T09:09:34.981Z,17.5
2022-10-23T09:10:36.995Z,17.7
2022-10-23T09:11:38.858Z,17.9
2022-10-23T09:12:41.020Z,18
2022-10-23T09:13:43.195Z,17.9
2022-10-23T09:14:44.875Z,17.8
2022-10-23T09:15:46.956Z,17.8
2022-10-23T09:16:48.903Z,17.7
2022-10-23T09:17:51.037Z,17.8
2022-10-23T09:18:52.983Z,17.8
2022-10-23T09:19:54.976Z,17.9
2022-10-23T09:20:57.175Z,17.9
2022-10-23T09:21:59.035Z,17.8
2022-10-23T09:23:01.112Z,17.9
2022-10-23T09:24:03.095Z,18
2022-10-23T09:25:06.835Z,18
2022-10-23T09:26:09.175Z,18.1
2022-10-23T09:27:11.018Z,18.3
2022-10-23T09:28:12.976Z,18.4
2022-10-23T09:29:14.915Z,18.4
2022-10-23T09:30:16.899Z,18.5
2022-10-23T09:31:18.929Z,18.6
2022-10-23T09:32:21.041Z,18.7
2022-10-23T09:33:23.215Z,18.8
2022-10-23T09:34:25.127Z,19
2022-10-23T09:35:26.954Z,19.3
2022-10-23T09:36:28.959Z,19.4
2022-10-23T09:37:31.115Z,19.3
2022-10-23T09:38:33.035Z,19.3
2022-10-23T09:39:35.288Z,19.4
2022-10-23T09:40:37.137Z,19.3
2022-10-23T09:41:39.322Z,19.4
2022-10-23T09:42:41.377Z,19.3
2022-10-23T09:43:42.908Z,19.2
2022-10-23T09:44:44.948Z,19.1
2022-10-23T09:45:46.995Z,19
2022-10-23T09:47:51.034Z,18.8
2022-10-23T09:48:52.916Z,18.8
2022-10-23T09:49:54.986Z,18.8
2022-10-23T09:50:56.945Z,18.8
2022-10-23T09:51:59.195Z,18.9
2022-10-23T09:53:01.454Z,18.9
2022-10-23T09:54:02.941Z,18.9
2022-10-23T09:55:04.937Z,19
2022-10-23T09:56:06.976Z,18.9
2022-10-23T09:57:09.238Z,18.8
2022-10-23T09:58:11.595Z,18.6
2022-10-23T09:59:12.983Z,18.5
2022-10-23T10:00:15.036Z,18.4
2022-10-23T10:01:17.075Z,18.3
2022-10-23T10:02:19.287Z,18.2
2022-10-23T10:03:21.303Z,18.2
2022-10-23T10:04:23.575Z,18.2
2022-10-23T10:05:24.978Z,18.3
2022-10-23T10:06:27.019Z,18.3
2022-10-23T10:07:30.162Z,18.3
2022-10-23T10:08:30.975Z,18.4
2022-10-23T10:09:32.955Z,18.4
2022-10-23T10:10:35.316Z,18.4
2022-10-23T10:11:37.004Z,18.6
2022-10-23T10:12:39.410Z,18.6
2022-10-23T10:13:40.935Z,18.8
2022-10-23T10:14:43.015Z,18.9
2022-10-23T10:15:44.956Z,18.9
2022-10-23T10:16:47.660Z,18.9
2022-10-23T10:17:49.002Z,18.8
2022-10-23T10:18:50.995Z,18.7
2022-10-23T10:19:53.014Z,18.7
2022-10-23T10:20:55.167Z,18.6
2022-10-23T10:21:57.095Z,18.6
2022-10-23T10:22:59.459Z,18.5
2022-10-23T10:24:01.454Z,18.6
2022-10-23T10:25:03.035Z,18.5
2022-10-23T10:26:05.639Z,18.4
2022-10-23T10:27:06.976Z,18.2
2022-10-23T10:28:08.957Z,18.1
2022-10-23T10:29:10.940Z,18.1
2022-10-23T10:30:13.021Z,18.2
2022-10-23T10:31:15.121Z,18.2
2022-10-23T10:32:17.080Z,18.4
2022-10-23T10:33:20.079Z,18.5
2022-10-23T10:34:22.176Z,18.6
2022-10-23T10:35:24.004Z,18.6
2022-10-23T10:37:28.077Z,18.7
2022-10-23T10:38:30.115Z,18.7
2022-10-23T10:39:32.137Z,18.7
2022-10-23T10:40:34.179Z,18.8
2022-10-23T10:41:36.054Z,18.8
2022-10-23T10:42:37.988Z,18.7
2022-10-23T10:43:39.995Z,18.7
2022-10-23T10:44:42.279Z,18.7
2022-10-23T10:45:44.119Z,18.6
2022-10-23T10:46:45.979Z,18.5
2022-10-23T10:47:48.541Z,18.3
2022-10-23T10:48:50.022Z,18.3
2022-10-23T10:49:52.116Z,18.2
2022-10-23T10:50:54.301Z,18.2
2022-10-23T10:51:56.380Z,18.1
2022-10-23T10:52:58.111Z,18.2
2022-10-23T10:54:00.119Z,18.2
2022-10-23T10:55:02.534Z,18.2
2022-10-23T10:56:04.286Z,18.1
2022-10-23T10:57:05.995Z,18.1
2022-10-23T10:58:08.038Z,18.2
2022-10-23T10:59:10.014Z,18.3
2022-10-23T11:00:11.994Z,18.5
2022-10-23T11:01:14.037Z,18.6
2022-10-23T11:02:16.046Z,18.7
2022-10-23T11:03:17.942Z,18.8
2022-10-23T11:04:20.155Z,18.9
2022-10-23T11:05:22.061Z,18.9
2022-10-23T11:06:24.044Z,18.8
2022-10-23T11:07:26.060Z,18.8
2022-10-23T11:08:27.953Z,18.9
2022-10-23T11:09:30.317Z,19
2022-10-23T11:10:32.370Z,19.1
2022-10-23T11:11:34.176Z,19.2
2022-10-23T11:12:36.036Z,19.2
2022-10-23T11:13:38.016Z,19.1
2022-10-23T11:14:39.975Z,19
2022-10-23T11:15:42.524Z,18.9
2022-10-23T11:16:44.037Z,18.9
2022-10-23T11:17:46.188Z,18.9
2022-10-23T11:18:47.986Z,18.8
2022-10-23T11:19:50.112Z,18.8
2022-10-23T11:20:52.875Z,18.9
2022-10-23T11:21:55.035Z,19
2022-10-23T11:22:57.199Z,19.1
2022-10-23T11:23:59.062Z,19.2
2022-10-23T11:25:01.055Z,19.2
2022-10-23T11:26:03.821Z,19.3
2022-10-23T11:27:05.225Z,19.4
2022-10-23T11:28:10.277Z,19.5
2022-10-23T11:29:09.035Z,19.6
2022-10-23T11:30:11.303Z,19.7
2022-10-23T11:31:13.015Z,19.8
2022-10-23T11:32:14.955Z,20.1
2022-10-23T11:33:16.995Z,20.3
2022-10-23T11:34:19.394Z,20.4
2022-10-23T11:35:21.036Z,20.5
2022-10-23T11:36:22.995Z,20.7
2022-10-23T11:37:25.575Z,20.7
2022-10-23T11:38:27.346Z,20.8
2022-10-23T11:39:29.035Z,20.9
2022-10-23T11:40:31.034Z,20.9
2022-10-23T11:41:32.977Z,20.9
2022-10-23T11:42:35.213Z,20.9
2022-10-23T11:43:37.315Z,21
2022-10-23T11:44:38.959Z,21.1
2022-10-23T11:45:41.036Z,21.1
2022-10-23T11:46:43.093Z,21.2
2022-10-23T11:47:45.015Z,21.1
2022-10-23T11:48:47.025Z,21.1
2022-10-23T11:49:48.985Z,21
2022-10-23T11:50:51.002Z,21
2022-10-23T11:51:53.475Z,20.9
2022-10-23T11:53:12.718Z,20.6
2022-10-23T11:53:57.087Z,20.5
2022-10-23T11:54:59.080Z,20.3
2022-10-23T11:56:01.015Z,20.2
2022-10-23T11:57:02.969Z,20.2
2022-10-23T11:58:05.037Z,20
2022-10-23T11:59:07.058Z,19.9
2022-10-23T12:00:09.078Z,19.9
2022-10-23T12:01:11.150Z,19.9
2022-10-23T12:02:12.988Z,20
2022-10-23T12:03:14.964Z,20.1
2022-10-23T12:04:17.631Z,20.3
2022-10-23T12:05:19.091Z,20.4
2022-10-23T12:06:21.483Z,20.4
2022-10-23T12:07:23.875Z,20.4
2022-10-23T12:08:26.035Z,20.4
2022-10-23T12:09:28.044Z,20.4
2022-10-23T12:10:30.080Z,20.4
2022-10-23T12:11:32.056Z,20.5
2022-10-23T12:12:34.089Z,20.5
2022-10-23T12:13:36.062Z,20.7
2022-10-23T12:14:38.001Z,20.7
2022-10-23T12:15:40.056Z,20.7
2022-10-23T12:16:42.020Z,20.7
2022-10-23T12:17:44.267Z,20.7
2022-10-23T12:18:46.035Z,20.6
2022-10-23T12:19:48.043Z,20.6
2022-10-23T12:20:50.066Z,20.6
2022-10-23T12:21:52.026Z,20.7
2022-10-23T12:22:54.331Z,20.6
2022-10-23T12:23:56.062Z,20.6
2022-10-23T12:24:58.058Z,20.5
2022-10-23T12:26:00.034Z,20.4
2022-10-23T12:27:02.055Z,20.3
2022-10-23T12:28:04.167Z,20.2
2022-10-23T12:29:06.056Z,20.1
2022-10-23T12:30:08.106Z,20.1
2022-10-23T12:31:10.023Z,20.2
2022-10-23T12:32:12.025Z,20
2022-10-23T12:33:14.045Z,19.9
2022-10-23T12:34:16.078Z,19.8
2022-10-23T12:35:18.044Z,19.8
2022-10-23T12:36:20.123Z,19.8
2022-10-23T12:37:22.035Z,19.8
2022-10-23T12:38:24.073Z,19.9
2022-10-23T12:39:26.055Z,20
2022-10-23T12:40:28.027Z,20.1
2022-10-23T12:41:30.004Z,20.2
2022-10-23T12:42:32.148Z,20.3
2022-10-23T12:43:34.045Z,20.5
2022-10-23T12:44:36.054Z,20.6
2022-10-23T12:45:38.112Z,20.7
2022-10-23T12:46:40.044Z,20.7
2022-10-23T12:47:42.067Z,20.8
2022-10-23T12:48:44.047Z,20.9
2022-10-23T12:49:46.094Z,21.1
2022-10-23T12:50:48.049Z,21.3
2022-10-23T12:51:50.055Z,21.4
2022-10-23T12:52:52.054Z,21.5
2022-10-23T12:53:54.011Z,21.5
2022-10-23T12:54:56.047Z,21.5
2022-10-23T12:55:58.048Z,21.6
2022-10-23T12:57:00.047Z,21.6
2022-10-23T12:58:02.103Z,21.5
2022-10-23T12:59:04.006Z,21.5
2022-10-23T13:00:06.086Z,21.5
2022-10-23T13:01:08.176Z,21.6
2022-10-23T13:02:10.336Z,21.7
2022-10-23T13:03:12.738Z,21.6
2022-10-23T13:04:14.091Z,21.6
2022-10-23T13:05:16.035Z,21.5
2022-10-23T13:06:18.025Z,21.4
2022-10-23T13:07:20.194Z,21.4
2022-10-23T13:08:22.056Z,21.4
2022-10-23T13:09:24.024Z,21.3
2022-10-23T13:10:26.031Z,21.3
2022-10-23T13:11:28.128Z,21.3
2022-10-23T13:12:30.101Z,21.3
2022-10-23T13:13:31.957Z,21.2
2022-10-23T13:14:34.035Z,21.2
2022-10-23T13:15:36.123Z,21.1
2022-10-23T13:16:38.166Z,21
2022-10-23T13:17:40.642Z,21
2022-10-23T13:18:42.114Z,20.9
2022-10-23T13:19:44.063Z,20.8
2022-10-23T13:20:46.053Z,20.9
2022-10-23T13:21:48.046Z,20.9
2022-10-23T13:22:50.160Z,21
2022-10-23T13:23:52.074Z,21
2022-10-23T13:24:54.125Z,21.2
2022-10-23T13:25:56.125Z,21.3
2022-10-23T13:26:58.090Z,21.4
2022-10-23T13:28:00.026Z,21.5
2022-10-23T13:29:04.767Z,21.6
2022-10-23T13:30:05.944Z,21.7
2022-10-23T13:31:06.143Z,21.7
2022-10-23T13:32:08.088Z,21.6
2022-10-23T13:33:10.225Z,21.6
2022-10-23T13:34:12.425Z,21.7
2022-10-23T13:35:21.231Z,21.7
2022-10-23T13:36:16.107Z,21.6
2022-10-23T13:37:18.113Z,21.6
2022-10-23T13:38:20.084Z,21.6
2022-10-23T13:39:23.066Z,21.6
2022-10-23T13:40:25.109Z,21.5
2022-10-23T13:41:27.110Z,21.5
2022-10-23T13:42:29.097Z,21.3
2022-10-23T13:43:31.085Z,21.4
2022-10-23T13:44:33.165Z,21.4
2022-10-23T13:45:35.086Z,21.4
2022-10-23T13:46:37.537Z,21.4
2022-10-23T13:47:39.665Z,21.3
2022-10-23T13:48:41.077Z,21.3
2022-10-23T13:49:43.071Z,21.3
2022-10-23T13:50:45.049Z,21.3
2022-10-23T13:51:47.052Z,21.2
2022-10-23T13:52:49.066Z,21
2022-10-23T13:53:51.025Z,20.9
2022-10-23T13:54:53.080Z,20.8
2022-10-23T13:55:56.386Z,20.7
2022-10-23T13:56:57.087Z,20.6
2022-10-23T13:57:59.088Z,20.4